| time (UTC) | temp C | wind direction | speed KPH | gust KPH | rain 1hr cm | rain 24hr cm | rain mn cm | humidity % | barometer mb |
| 20260508111104 | 12 | 78 | 4.8 | 8.0 | 0.00 | 0.00 | 0.00 | 74 | 1013.2 |
| 20260508110604 | 12 | 80 | 4.8 | 9.7 | 0.00 | 0.00 | 0.00 | 74 | 1013.2 |
| 20260508110104 | 12 | 85 | 6.4 | 11.3 | 0.00 | 0.00 | 0.00 | 74 | 1013.2 |
| 20260508105604 | 12 | 84 | 8.0 | 11.3 | 0.00 | 0.00 | 0.00 | 75 | 1013.2 |
| 20260508105104 | 12 | 78 | 6.4 | 11.3 | 0.00 | 0.00 | 0.00 | 74 | 1013.2 |
| 20260508104604 | 12 | 78 | 8.0 | 11.3 | 0.00 | 0.00 | 0.00 | 75 | 1013.2 |
| 20260508104104 | 12 | 72 | 3.2 | 8.0 | 0.00 | 0.00 | 0.00 | 75 | 1013.2 |
| 20260508103604 | 12 | 71 | 4.8 | 11.3 | 0.00 | 0.00 | 0.00 | 75 | 1013.2 |
| 20260508103104 | 12 | 70 | 6.4 | 11.3 | 0.00 | 0.00 | 0.00 | 76 | 1013.2 |
| 20260508102604 | 12 | 78 | 8.0 | 11.3 | 0.00 | 0.00 | 0.00 | 75 | 1013.2 |
| 20260508102104 | 12 | 77 | 4.8 | 8.0 | 0.00 | 0.00 | 0.00 | 75 | 1013.2 |
| 20260508101604 | 12 | 74 | 6.4 | 8.0 | 0.00 | 0.00 | 0.00 | 75 | 1013.2 |
| 20260508100104 | 12 | 67 | 6.4 | 12.9 | 0.00 | 0.00 | 0.00 | 76 | 1013.2 |
| 20260508095604 | 12 | 62 | 6.4 | 11.3 | 0.00 | 0.00 | 0.00 | 75 | 1013.2 |
| 20260508095104 | 12 | 60 | 3.2 | 11.3 | 0.00 | 0.00 | 0.00 | 76 | 1013.2 |
| 20260508094604 | 12 | 76 | 3.2 | 9.7 | 0.00 | 0.00 | 0.00 | 77 | 1013.2 |
| 20260508094104 | 12 | 79 | 4.8 | 9.7 | 0.00 | 0.00 | 0.00 | 77 | 1013.2 |
| 20260508093604 | 11 | 79 | 3.2 | 9.7 | 0.00 | 0.00 | 0.00 | 77 | 1013.2 |
| 20260508093104 | 11 | 80 | 3.2 | 4.8 | 0.00 | 0.00 | 0.00 | 76 | 1013.2 |
| 20260508092604 | 11 | 77 | 3.2 | 4.8 | 0.00 | 0.00 | 0.00 | 77 | 1013.2 |
| 20260508092104 | 11 | 77 | 3.2 | 4.8 | 0.00 | 0.00 | 0.00 | 77 | 1013.2 |
| 20260508091604 | 11 | 77 | 3.2 | 4.8 | 0.00 | 0.00 | 0.00 | 77 | 1013.2 |
| 20260508091104 | 11 | 77 | 3.2 | 4.8 | 0.00 | 0.00 | 0.00 | 77 | 1013.2 |
| 20260508090604 | 11 | 81 | 1.6 | 8.0 | 0.00 | 0.00 | 0.00 | 77 | 1013.2 |
| 20260508090104 | 11 | 110 | 3.2 | 4.8 | 0.00 | 0.00 | 0.00 | 77 | 1013.2 |
| 20260508085603 | 11 | 110 | 3.2 | 4.8 | 0.00 | 0.00 | 0.00 | 77 | 1013.2 |
| 20260508085104 | 11 | 111 | 1.6 | 4.8 | 0.00 | 0.00 | 0.00 | 76 | 1013.2 |
| 20260508084604 | 12 | 111 | 1.6 | 3.2 | 0.00 | 0.00 | 0.00 | 77 | 1013.2 |
| 20260508084104 | 11 | 111 | 0.0 | 3.2 | 0.00 | 0.00 | 0.00 | 77 | 1013.2 |
| 20260508083604 | 11 | 111 | 3.2 | 4.8 | 0.00 | 0.00 | 0.00 | 77 | 1013.2 |
| 20260508082104 | 11 | 112 | 4.8 | 4.8 | 0.00 | 0.00 | 0.00 | 76 | 1013.2 |
| 20260508081604 | 11 | 112 | 3.2 | 4.8 | 0.00 | 0.00 | 0.00 | 76 | 1013.2 |
| 20260508081104 | 11 | 112 | 0.0 | 4.8 | 0.00 | 0.00 | 0.00 | 76 | 1013.2 |
| 20260508080604 | 11 | 112 | 3.2 | 8.0 | 0.00 | 0.00 | 0.00 | 76 | 1013.2 |
| 20260508080104 | 11 | 118 | 3.2 | 4.8 | 0.00 | 0.00 | 0.00 | 75 | 1013.2 |
| 20260508075605 | 11 | 129 | 3.2 | 8.0 | 0.00 | 0.00 | 0.00 | 75 | 1013.2 |
| 20260508075105 | 11 | 145 | 3.2 | 4.8 | 0.00 | 0.00 | 0.00 | 77 | 1013.2 |
| 20260508074603 | 11 | 146 | 3.2 | 4.8 | 0.00 | 0.00 | 0.00 | 78 | 1013.2 |
| 20260508073604 | 11 | 147 | 3.2 | 4.8 | 0.00 | 0.00 | 0.00 | 80 | 1013.2 |
| 20260508073104 | 10 | 147 | 3.2 | 4.8 | 0.00 | 0.00 | 0.00 | 81 | 1013.2 |
| 20260508072604 | 10 | 147 | 1.6 | 4.8 | 0.00 | 0.00 | 0.00 | 81 | 1013.2 |
| 20260508072104 | 10 | 147 | 1.6 | 4.8 | 0.00 | 0.00 | 0.00 | 81 | 1013.2 |
| 20260508071604 | 10 | 148 | 1.6 | 4.8 | 0.00 | 0.00 | 0.00 | 81 | 1013.2 |
| 20260508071104 | 10 | 189 | 1.6 | 4.8 | 0.00 | 0.00 | 0.00 | 80 | 1013.2 |
| 20260508070604 | 10 | 191 | 3.2 | 4.8 | 0.00 | 0.00 | 0.00 | 80 | 1013.2 |
| 20260508065604 | 10 | 188 | 0.0 | 0.0 | 0.00 | 0.00 | 0.00 | 79 | 1013.2 |
| 20260508065103 | 10 | 188 | 0.0 | 0.0 | 0.00 | 0.00 | 0.00 | 79 | 1013.2 |
| 20260508064604 | 10 | 188 | 0.0 | 3.2 | 0.00 | 0.00 | 0.00 | 79 | 1013.2 |
| 20260508064104 | 10 | 188 | 0.0 | 3.2 | 0.00 | 0.00 | 0.00 | 79 | 1013.2 |
| 20260508063604 | 10 | 188 | 0.0 | 0.0 | 0.00 | 0.00 | 0.00 | 80 | 1013.2 |
| 20260508063104 | 10 | 187 | 0.0 | 0.0 | 0.00 | 0.00 | 0.00 | 80 | 1013.2 |
| 20260508062604 | 10 | 187 | 0.0 | 0.0 | 0.00 | 0.00 | 0.00 | 80 | 1013.2 |
| 20260508061104 | 10 | 187 | 1.6 | 4.8 | 0.00 | 0.00 | 0.00 | 79 | 1013.2 |
| 20260508060103 | 10 | 187 | 4.8 | 8.0 | 0.00 | 0.00 | 0.00 | 79 | 1013.2 |
| 20260508055604 | 10 | 193 | 4.8 | 8.0 | 0.00 | 0.00 | 0.00 | 80 | 1013.2 |
| 20260508055104 | 10 | 195 | 4.8 | 8.0 | 0.00 | 0.00 | 0.00 | 80 | 1013.2 |
| 20260508054604 | 9 | 190 | 8.0 | 11.3 | 0.00 | 0.00 | 0.00 | 80 | 1013.2 |
| 20260508054104 | 9 | 219 | 8.0 | 12.9 | 0.00 | 0.00 | 0.00 | 80 | 1013.2 |
| 20260508053604 | 9 | 182 | 8.0 | 12.9 | 0.00 | 0.00 | 0.00 | 80 | 1013.2 |
| 20260508052604 | 9 | 195 | 4.8 | 11.3 | 0.00 | 0.00 | 0.00 | 80 | 1013.2 |
| 20260508050605 | 9 | 191 | 4.8 | 11.3 | 0.00 | 0.00 | 0.00 | 80 | 1013.2 |
| 20260508050104 | 9 | 198 | 3.2 | 8.0 | 0.00 | 0.00 | 0.00 | 81 | 1013.2 |
| 20260508045604 | 9 | 207 | 4.8 | 8.0 | 0.00 | 0.00 | 0.00 | 81 | 1013.2 |
| 20260508045104 | 8 | 152 | 6.4 | 11.3 | 0.00 | 0.00 | 0.00 | 81 | 1013.2 |
| 20260508044604 | 8 | 93 | 3.2 | 8.0 | 0.00 | 0.00 | 0.00 | 82 | 1013.2 |
| 20260508044104 | 8 | 97 | 4.8 | 8.0 | 0.00 | 0.00 | 0.00 | 82 | 1013.2 |
| 20260508043604 | 9 | 124 | 4.8 | 9.7 | 0.00 | 0.00 | 0.00 | 81 | 1013.2 |
| 20260508043104 | 9 | 115 | 1.6 | 11.3 | 0.00 | 0.00 | 0.00 | 81 | 1013.2 |
| 20260508042603 | 8 | 179 | 3.2 | 12.9 | 0.00 | 0.00 | 0.00 | 82 | 1013.2 |
| 20260508041604 | 9 | 240 | 3.2 | 4.8 | 0.00 | 0.00 | 0.00 | 80 | 1013.2 |
| 20260508041105 | 9 | 244 | 0.0 | 0.0 | 0.00 | 0.00 | 0.00 | 80 | 1013.2 |
| 20260508040604 | 9 | 242 | 0.0 | 8.0 | 0.00 | 0.00 | 0.00 | 79 | 1013.2 |
| 20260508040104 | 9 | 246 | 3.2 | 12.9 | 0.00 | 0.00 | 0.00 | 79 | 1013.2 |
| 20260508035604 | 9 | 197 | 11.3 | 19.3 | 0.00 | 0.00 | 0.00 | 79 | 1013.2 |
| 20260508035104 | 9 | 190 | 9.7 | 14.5 | 0.00 | 0.00 | 0.00 | 80 | 1013.2 |
| 20260508034604 | 9 | 192 | 8.0 | 16.1 | 0.00 | 0.00 | 0.00 | 80 | 1013.2 |
| 20260508033604 | 9 | 197 | 8.0 | 12.9 | 0.00 | 0.00 | 0.00 | 80 | 1013.2 |
| 20260508033104 | 9 | 237 | 1.6 | 4.8 | 0.00 | 0.00 | 0.00 | 79 | 1013.2 |
| 20260508032604 | 9 | 238 | 1.6 | 9.7 | 0.00 | 0.00 | 0.00 | 79 | 1013.2 |
| 20260508032104 | 9 | 201 | 8.0 | 12.9 | 0.00 | 0.00 | 0.00 | 79 | 1013.2 |
| 20260508031604 | 9 | 188 | 9.7 | 16.1 | 0.00 | 0.00 | 0.00 | 80 | 1013.2 |
| 20260508031104 | 9 | 188 | 9.7 | 14.5 | 0.00 | 0.00 | 0.00 | 80 | 1013.2 |
| 20260508030604 | 9 | 189 | 9.7 | 14.5 | 0.00 | 0.00 | 0.00 | 80 | 1013.2 |
| 20260508030105 | 9 | 189 | 8.0 | 12.9 | 0.00 | 0.00 | 0.00 | 80 | 1013.2 |
| 20260508025604 | 9 | 236 | 8.0 | 12.9 | 0.00 | 0.00 | 0.00 | 79 | 1013.2 |
| 20260508024604 | 10 | 234 | 8.0 | 14.5 | 0.00 | 0.00 | 0.00 | 79 | 1013.2 |
| 20260508024103 | 10 | 199 | 8.0 | 12.9 | 0.00 | 0.00 | 0.00 | 79 | 1013.2 |
| 20260508023604 | 10 | 185 | 9.7 | 14.5 | 0.00 | 0.00 | 0.00 | 79 | 1013.2 |
| 20260508023104 | 10 | 175 | 9.7 | 19.3 | 0.00 | 0.00 | 0.00 | 79 | 1013.2 |
| 20260508022604 | 10 | 186 | 9.7 | 14.5 | 0.00 | 0.00 | 0.00 | 79 | 1013.2 |
| 20260508022104 | 10 | 183 | 9.7 | 16.1 | 0.00 | 0.00 | 0.00 | 79 | 1013.2 |
| 20260508021604 | 10 | 182 | 11.3 | 19.3 | 0.00 | 0.00 | 0.00 | 79 | 1013.2 |
| 20260508021104 | 10 | 176 | 8.0 | 16.1 | 0.00 | 0.00 | 0.00 | 79 | 1013.2 |
| 20260508020604 | 10 | 211 | 6.4 | 14.5 | 0.00 | 0.00 | 0.00 | 79 | 1013.2 |
| 20260508020104 | 10 | 201 | 9.7 | 14.5 | 0.00 | 0.00 | 0.00 | 79 | 1013.2 |
| 20260508015604 | 9 | 196 | 9.7 | 12.9 | 0.00 | 0.00 | 0.00 | 79 | 1013.2 |
| 20260508015104 | 9 | 184 | 9.7 | 16.1 | 0.00 | 0.00 | 0.00 | 79 | 1013.2 |
| 20260508014104 | 9 | 177 | 11.3 | 20.9 | 0.00 | 0.00 | 0.00 | 80 | 1013.2 |
| 20260508013605 | 9 | 182 | 11.3 | 16.1 | 0.00 | 0.00 | 0.00 | 80 | 1013.2 |
| 20260508013104 | 9 | 180 | 11.3 | 19.3 | 0.00 | 0.00 | 0.00 | 81 | 1013.2 |
| 20260508012604 | 9 | 183 | 9.7 | 16.1 | 0.00 | 0.00 | 0.00 | 81 | 1013.2 |
| 20260508012104 | 9 | 179 | 11.3 | 19.3 | 0.00 | 0.00 | 0.00 | 81 | 1013.2 |
| 20260508011604 | 9 | 204 | 9.7 | 16.1 | 0.00 | 0.00 | 0.00 | 81 | 1013.2 |
| 20260508010603 | 9 | 192 | 8.0 | 14.5 | 0.00 | 0.00 | 0.00 | 81 | 1013.2 |
| 20260508005603 | 9 | 190 | 9.7 | 19.3 | 0.00 | 0.00 | 0.00 | 82 | 1013.2 |
| 20260508005104 | 9 | 186 | 11.3 | 19.3 | 0.00 | 0.00 | 0.00 | 82 | 1013.2 |
| 20260508004103 | 9 | 183 | 11.3 | 19.3 | 0.00 | 0.00 | 0.00 | 82 | 1013.2 |
| 20260508003604 | 8 | 186 | 11.3 | 19.3 | 0.00 | 0.00 | 0.00 | 81 | 1013.2 |
| 20260508002604 | 9 | 202 | 8.0 | 19.3 | 0.00 | 0.00 | 0.00 | 81 | 1013.2 |
| 20260508002104 | 9 | 191 | 11.3 | 14.5 | 0.00 | 0.00 | 0.00 | 81 | 1013.2 |
| 20260508001604 | 9 | 195 | 8.0 | 12.9 | 0.00 | 0.00 | 0.00 | 80 | 1013.2 |
| 20260508000604 | 9 | 188 | 14.5 | 19.3 | 0.00 | 0.00 | 0.00 | 80 | 1013.2 |
| 20260508000104 | 9 | 184 | 12.9 | 22.5 | 0.00 | 0.00 | 0.00 | 80 | 1013.2 |
| 20260507235604 | 9 | 191 | 16.1 | 22.5 | 0.00 | 0.00 | 0.00 | 81 | 1013.2 |
| 20260507235104 | 9 | 187 | 14.5 | 24.1 | 0.00 | 0.00 | 0.00 | 81 | 1013.2 |
| 20260507234604 | 9 | 185 | 16.1 | 27.4 | 0.00 | 0.00 | 0.00 | 81 | 1013.2 |
| 20260507234104 | 9 | 190 | 14.5 | 22.5 | 0.00 | 0.00 | 0.00 | 81 | 1013.2 |
| 20260507233604 | 9 | 183 | 12.9 | 20.9 | 0.00 | 0.00 | 0.00 | 81 | 1013.2 |
| 20260507233104 | 9 | 188 | 11.3 | 16.1 | 0.00 | 0.00 | 0.00 | 81 | 1013.2 |
| 20260507232604 | 9 | 204 | 9.7 | 19.3 | 0.00 | 0.00 | 0.00 | 81 | 1013.2 |
| 20260507232104 | 9 | 189 | 12.9 | 20.9 | 0.00 | 0.00 | 0.00 | 81 | 1013.2 |
| 20260507231604 | 9 | 192 | 16.1 | 24.1 | 0.00 | 0.00 | 0.00 | 81 | 1013.2 |
| 20260507231104 | 9 | 185 | 14.5 | 22.5 | 0.00 | 0.00 | 0.00 | 81 | 1013.2 |
| 20260507230603 | 9 | 178 | 14.5 | 32.2 | 0.00 | 0.00 | 0.00 | 81 | 1013.2 |
| 20260507225604 | 9 | 183 | 16.1 | 25.7 | 0.00 | 0.00 | 0.00 | 81 | 1013.2 |
| 20260507225104 | 9 | 188 | 16.1 | 24.1 | 0.00 | 0.00 | 0.00 | 81 | 1013.2 |
| 20260507224604 | 9 | 185 | 17.7 | 25.7 | 0.00 | 0.00 | 0.00 | 81 | 1013.2 |
| 20260507223604 | 9 | 181 | 16.1 | 24.1 | 0.00 | 0.00 | 0.00 | 80 | 1013.2 |
| 20260507222604 | 9 | 188 | 17.7 | 32.2 | 0.00 | 0.00 | 0.00 | 80 | 1013.2 |
| 20260507222104 | 9 | 182 | 17.7 | 24.1 | 0.00 | 0.00 | 0.00 | 79 | 1013.2 |
| 20260507221604 | 9 | 184 | 16.1 | 24.1 | 0.00 | 0.00 | 0.00 | 79 | 1013.2 |
| 20260507221104 | 9 | 194 | 14.5 | 24.1 | 0.00 | 0.00 | 0.00 | 79 | 1013.2 |
| 20260507220104 | 10 | 200 | 19.3 | 27.4 | 0.00 | 0.00 | 0.00 | 79 | 1013.2 |
| 20260507215604 | 10 | 187 | 17.7 | 24.1 | 0.00 | 0.00 | 0.00 | 79 | 1013.2 |
| 20260507215104 | 10 | 198 | 17.7 | 25.7 | 0.00 | 0.00 | 0.00 | 78 | 1013.2 |
| 20260507214604 | 10 | 182 | 12.9 | 22.5 | 0.00 | 0.00 | 0.00 | 78 | 1013.2 |
| 20260507214104 | 10 | 184 | 19.3 | 25.7 | 0.00 | 0.00 | 0.00 | 78 | 1013.2 |
| 20260507213604 | 10 | 181 | 12.9 | 24.1 | 0.00 | 0.00 | 0.00 | 78 | 1013.2 |
| 20260507213104 | 10 | 188 | 11.3 | 22.5 | 0.00 | 0.00 | 0.00 | 78 | 1013.2 |
| 20260507212604 | 10 | 188 | 11.3 | 20.9 | 0.00 | 0.00 | 0.00 | 77 | 1013.2 |
| 20260507212103 | 10 | 184 | 11.3 | 19.3 | 0.00 | 0.00 | 0.00 | 77 | 1013.2 |
| 20260507211604 | 10 | 182 | 11.3 | 22.5 | 0.00 | 0.00 | 0.00 | 76 | 1013.2 |
| 20260507211104 | 10 | 183 | 9.7 | 19.3 | 0.00 | 0.00 | 0.00 | 76 | 1013.2 |
| 20260507210604 | 10 | 183 | 9.7 | 14.5 | 0.00 | 0.00 | 0.00 | 76 | 1013.2 |
| 20260507210104 | 10 | 185 | 11.3 | 19.3 | 0.00 | 0.00 | 0.00 | 76 | 1013.2 |
| 20260507205604 | 10 | 185 | 11.3 | 16.1 | 0.00 | 0.00 | 0.00 | 76 | 1013.2 |
| 20260507204104 | 10 | 184 | 9.7 | 22.5 | 0.00 | 0.00 | 0.00 | 74 | 1013.2 |
| 20260507203104 | 10 | 196 | 11.3 | 20.9 | 0.00 | 0.00 | 0.00 | 74 | 1013.2 |
| 20260507202604 | 10 | 189 | 12.9 | 19.3 | 0.00 | 0.00 | 0.00 | 74 | 1013.2 |
| 20260507202104 | 10 | 188 | 12.9 | 19.3 | 0.00 | 0.00 | 0.00 | 73 | 1013.2 |
| 20260507201604 | 10 | 190 | 14.5 | 20.9 | 0.00 | 0.00 | 0.00 | 73 | 1013.2 |
| 20260507201103 | 10 | 185 | 11.3 | 19.3 | 0.00 | 0.00 | 0.00 | 73 | 1013.2 |
| 20260507200104 | 10 | 194 | 16.1 | 22.5 | 0.00 | 0.00 | 0.00 | 73 | 1013.2 |
| 20260507194604 | 10 | 191 | 11.3 | 19.3 | 0.00 | 0.00 | 0.00 | 72 | 1013.2 |
| 20260507194104 | 10 | 188 | 9.7 | 14.5 | 0.00 | 0.00 | 0.00 | 71 | 1013.2 |
| 20260507193604 | 10 | 178 | 9.7 | 12.9 | 0.00 | 0.00 | 0.00 | 71 | 1013.2 |
| 20260507193104 | 11 | 167 | 9.7 | 19.3 | 0.00 | 0.00 | 0.00 | 70 | 1013.2 |
| 20260507192604 | 11 | 187 | 11.3 | 16.1 | 0.00 | 0.00 | 0.00 | 70 | 1013.2 |
| 20260507192104 | 11 | 173 | 9.7 | 16.1 | 0.00 | 0.00 | 0.00 | 71 | 1013.2 |
| 20260507191604 | 11 | 188 | 11.3 | 14.5 | 0.00 | 0.00 | 0.00 | 71 | 1013.2 |
| 20260507191104 | 11 | 176 | 9.7 | 12.9 | 0.00 | 0.00 | 0.00 | 72 | 1013.2 |
| 20260507190603 | 11 | 175 | 9.7 | 16.1 | 0.00 | 0.00 | 0.00 | 72 | 1013.2 |
| 20260507190104 | 11 | 178 | 9.7 | 16.1 | 0.00 | 0.00 | 0.00 | 73 | 1013.2 |
| 20260507185604 | 11 | 189 | 8.0 | 19.3 | 0.00 | 0.00 | 0.00 | 73 | 1013.2 |
| 20260507185104 | 11 | 165 | 8.0 | 16.1 | 0.00 | 0.00 | 0.00 | 74 | 1013.2 |
| 20260507184604 | 11 | 175 | 9.7 | 14.5 | 0.00 | 0.00 | 0.00 | 74 | 1013.2 |
| 20260507184104 | 11 | 175 | 9.7 | 16.1 | 0.00 | 0.00 | 0.00 | 74 | 1013.2 |
| 20260507183604 | 11 | 174 | 9.7 | 24.1 | 0.00 | 0.00 | 0.00 | 74 | 1013.2 |
| 20260507182604 | 11 | 163 | 9.7 | 16.1 | 0.00 | 0.00 | 0.00 | 72 | 1013.2 |
| 20260507182103 | 11 | 167 | 9.7 | 19.3 | 0.00 | 0.00 | 0.00 | 73 | 1013.2 |
| 20260507181603 | 11 | 168 | 8.0 | 16.1 | 0.00 | 0.00 | 0.00 | 73 | 1013.2 |
| 20260507181104 | 11 | 166 | 11.3 | 16.1 | 0.00 | 0.00 | 0.00 | 73 | 1013.2 |
| 20260507180604 | 11 | 198 | 8.0 | 19.3 | 0.00 | 0.00 | 0.00 | 72 | 1013.2 |
| 20260507175603 | 11 | 184 | 11.3 | 19.3 | 0.00 | 0.00 | 0.00 | 72 | 1013.2 |
| 20260507175104 | 11 | 181 | 11.3 | 20.9 | 0.00 | 0.00 | 0.00 | 72 | 1013.2 |
| 20260507174604 | 11 | 178 | 9.7 | 22.5 | 0.00 | 0.00 | 0.00 | 72 | 1013.2 |
| 20260507174104 | 11 | 193 | 8.0 | 19.3 | 0.00 | 0.00 | 0.00 | 74 | 1013.2 |
| 20260507173604 | 11 | 182 | 9.7 | 19.3 | 0.00 | 0.00 | 0.00 | 74 | 1013.2 |
| 20260507173104 | 12 | 198 | 8.0 | 11.3 | 0.00 | 0.00 | 0.00 | 75 | 1013.2 |
| 20260507172604 | 12 | 184 | 4.8 | 11.3 | 0.00 | 0.00 | 0.00 | 74 | 1013.2 |
| 20260507172104 | 12 | 186 | 6.4 | 12.9 | 0.00 | 0.00 | 0.00 | 74 | 1013.2 |
| 20260507170104 | 12 | 201 | 9.7 | 16.1 | 0.00 | 0.00 | 0.00 | 74 | 1013.2 |
| 20260507165604 | 12 | 225 | 9.7 | 20.9 | 0.00 | 0.00 | 0.00 | 74 | 1013.2 |
| 20260507165104 | 12 | 220 | 9.7 | 19.3 | 0.00 | 0.00 | 0.00 | 75 | 1013.2 |
| 20260507164604 | 11 | 202 | 11.3 | 19.3 | 0.00 | 0.00 | 0.00 | 75 | 1013.2 |
| 20260507164104 | 11 | 189 | 14.5 | 22.5 | 0.00 | 0.00 | 0.00 | 75 | 1013.2 |
| 20260507163604 | 11 | 182 | 6.4 | 16.1 | 0.00 | 0.00 | 0.00 | 75 | 1013.2 |
| 20260507163104 | 11 | 173 | 9.7 | 19.3 | 0.00 | 0.00 | 0.00 | 75 | 1013.2 |
| 20260507162103 | 11 | 183 | 11.3 | 19.3 | 0.00 | 0.00 | 0.00 | 75 | 1013.2 |
| 20260507161103 | 11 | 187 | 14.5 | 20.9 | 0.00 | 0.00 | 0.00 | 73 | 1013.2 |
| 20260507160604 | 12 | 189 | 12.9 | 20.9 | 0.00 | 0.00 | 0.00 | 72 | 1013.2 |
| 20260507160104 | 12 | 185 | 11.3 | 25.7 | 0.00 | 0.00 | 0.00 | 70 | 1013.2 |
| 20260507155603 | 12 | 190 | 9.7 | 19.3 | 0.00 | 0.00 | 0.00 | 69 | 1013.2 |
| 20260507155104 | 12 | 186 | 12.9 | 20.9 | 0.00 | 0.00 | 0.00 | 69 | 1013.2 |
| 20260507154604 | 12 | 199 | 6.4 | 19.3 | 0.00 | 0.00 | 0.00 | 70 | 1013.2 |
| 20260507154103 | 12 | 212 | 8.0 | 9.7 | 0.00 | 0.00 | 0.00 | 70 | 1013.2 |
| 20260507153604 | 12 | 196 | 3.2 | 12.9 | 0.00 | 0.00 | 0.00 | 70 | 1013.2 |
| 20260507153104 | 12 | 178 | 4.8 | 8.0 | 0.00 | 0.00 | 0.00 | 71 | 1013.2 |
| 20260507152603 | 12 | 168 | 4.8 | 11.3 | 0.00 | 0.00 | 0.00 | 70 | 1013.2 |
| 20260507152104 | 12 | 191 | 3.2 | 4.8 | 0.00 | 0.00 | 0.00 | 71 | 1013.2 |
| 20260507151604 | 12 | 191 | 1.6 | 4.8 | 0.00 | 0.00 | 0.00 | 71 | 1013.2 |
| 20260507151104 | 12 | 192 | 4.8 | 9.7 | 0.00 | 0.00 | 0.00 | 71 | 1013.2 |
| 20260507150604 | 12 | 193 | 1.6 | 4.8 | 0.00 | 0.00 | 0.00 | 72 | 1013.2 |
| 20260507150104 | 12 | 193 | 4.8 | 11.3 | 0.00 | 0.00 | 0.00 | 72 | 1013.2 |
| 20260507145603 | 12 | 133 | 4.8 | 8.0 | 0.00 | 0.00 | 0.00 | 73 | 1013.2 |
| 20260507144604 | 11 | 61 | 1.6 | 3.2 | 0.00 | 0.00 | 0.00 | 74 | 1013.2 |
| 20260507143604 | 11 | 61 | 0.0 | 3.2 | 0.00 | 0.00 | 0.00 | 76 | 1013.2 |
| 20260507142604 | 11 | 61 | 1.6 | 4.8 | 0.00 | 0.00 | 0.00 | 75 | 1013.2 |
| 20260507142104 | 11 | 61 | 4.8 | 4.8 | 0.00 | 0.00 | 0.00 | 74 | 1013.2 |
| 20260507141604 | 11 | 61 | 1.6 | 4.8 | 0.00 | 0.00 | 0.00 | 73 | 1013.2 |
| 20260507141104 | 11 | 61 | 1.6 | 4.8 | 0.00 | 0.00 | 0.00 | 72 | 1013.2 |
| 20260507140604 | 11 | 61 | 3.2 | 8.0 | 0.00 | 0.00 | 0.00 | 71 | 1013.2 |
| 20260507140104 | 11 | 51 | 3.2 | 8.0 | 0.00 | 0.00 | 0.00 | 70 | 1013.2 |
| 20260507135604 | 11 | 21 | 4.8 | 9.7 | 0.00 | 0.00 | 0.00 | 73 | 1013.2 |
| 20260507135104 | 11 | 14 | 6.4 | 8.0 | 0.00 | 0.00 | 0.00 | 72 | 1013.2 |
| 20260507134604 | 11 | 4 | 0.0 | 4.8 | 0.00 | 0.00 | 0.00 | 71 | 1013.2 |
| 20260507134104 | 11 | 4 | 1.6 | 4.8 | 0.00 | 0.00 | 0.00 | 70 | 1013.2 |
| 20260507133604 | 11 | 4 | 4.8 | 9.7 | 0.00 | 0.00 | 0.00 | 70 | 1013.2 |
| 20260507133104 | 11 | 4 | 6.4 | 9.7 | 0.00 | 0.00 | 0.00 | 70 | 1013.2 |
| 20260507132604 | 11 | 5 | 3.2 | 9.7 | 0.00 | 0.00 | 0.00 | 70 | 1013.2 |
| 20260507132104 | 12 | 4 | 8.0 | 9.7 | 0.00 | 0.00 | 0.00 | 69 | 1013.2 |
| 20260507131604 | 12 | 4 | 6.4 | 9.7 | 0.00 | 0.00 | 0.00 | 68 | 1013.2 |
| 20260507131104 | 12 | 302 | 6.4 | 9.7 | 0.00 | 0.00 | 0.00 | 67 | 1013.2 |
| 20260507130604 | 12 | 272 | 4.8 | 8.0 | 0.00 | 0.00 | 0.00 | 66 | 1013.2 |
| 20260507130104 | 13 | 209 | 3.2 | 4.8 | 0.00 | 0.00 | 0.00 | 64 | 1013.2 |
| 20260507125104 | 13 | 202 | 0.0 | 3.2 | 0.00 | 0.00 | 0.00 | 61 | 1013.2 |
| 20260507124603 | 13 | 202 | 0.0 | 4.8 | 0.00 | 0.00 | 0.00 | 62 | 1013.2 |
| 20260507124104 | 13 | 202 | 0.0 | 4.8 | 0.00 | 0.00 | 0.00 | 61 | 1013.2 |
| 20260507123604 | 13 | 202 | 1.6 | 4.8 | 0.00 | 0.00 | 0.00 | 61 | 1013.2 |
| 20260507123104 | 13 | 200 | 4.8 | 9.7 | 0.00 | 0.00 | 0.00 | 61 | 1013.2 |
| 20260507122604 | 13 | 197 | 3.2 | 8.0 | 0.00 | 0.00 | 0.00 | 62 | 1013.3 |
| 20260507122104 | 13 | 188 | 4.8 | 9.7 | 0.00 | 0.00 | 0.00 | 62 | 1013.3 |
| 20260507121603 | 13 | 180 | 4.8 | 9.7 | 0.00 | 0.00 | 0.00 | 62 | 1013.3 |
| 20260507121104 | 13 | 177 | 4.8 | 11.3 | 0.00 | 0.00 | 0.00 | 61 | 1013.3 |
| 20260507120604 | 13 | 214 | 8.0 | 14.5 | 0.00 | 0.00 | 0.00 | 61 | 1013.3 |
| 20260507120104 | 13 | 175 | 11.3 | 19.3 | 0.00 | 0.00 | 0.00 | 62 | 1013.4 |
| 20260507114604 | 13 | 172 | 12.9 | 22.5 | 0.00 | 0.00 | 0.00 | 65 | 1013.3 |
| 20260507114105 | 13 | 180 | 12.9 | 24.1 | 0.00 | 0.00 | 0.00 | 63 | 1013.3 |
| 20260507113603 | 12 | 184 | 11.3 | 20.9 | 0.00 | 0.00 | 0.00 | 64 | 1013.3 |
| 20260507113104 | 12 | 163 | 16.1 | 25.7 | 0.00 | 0.00 | 0.00 | 64 | 1013.3 |
| 20260507112604 | 12 | 188 | 14.5 | 27.4 | 0.00 | 0.00 | 0.00 | 65 | 1013.3 |
| 20260507112104 | 12 | 176 | 16.1 | 22.5 | 0.00 | 0.00 | 0.00 | 65 | 1013.3 |